createdAt,value
2023-03-11T00:01:44.611Z,1.00
2023-03-11T00:03:46.299Z,1.35
2023-03-11T00:05:47.975Z,1.13
2023-03-11T00:07:50.564Z,1.20
2023-03-11T00:09:52.222Z,1.15
2023-03-11T00:11:53.846Z,1.63
2023-03-11T00:13:55.726Z,1.42
2023-03-11T00:15:57.929Z,1.67
2023-03-11T00:17:59.583Z,1.38
2023-03-11T00:20:01.274Z,2.22
2023-03-11T00:22:03.249Z,1.30
2023-03-11T00:24:05.213Z,1.20
2023-03-11T00:26:06.896Z,1.33
2023-03-11T00:28:10.550Z,1.33
2023-03-11T00:30:14.161Z,1.02
2023-03-11T00:32:16.064Z,1.00
2023-03-11T00:34:17.670Z,1.55
2023-03-11T00:36:33.898Z,1.33
2023-03-11T00:38:35.554Z,1.52
2023-03-11T00:40:37.266Z,1.30
2023-03-11T00:42:38.851Z,1.20
2023-03-11T00:44:40.493Z,1.70
2023-03-11T00:46:42.399Z,1.30
2023-03-11T00:48:44.097Z,1.80
2023-03-11T00:50:46.610Z,1.38
2023-03-11T00:52:49.260Z,1.50
2023-03-11T00:54:50.915Z,1.45
2023-03-11T00:56:52.515Z,2.30
2023-03-11T00:58:54.197Z,1.70
2023-03-11T01:00:55.810Z,1.17
2023-03-11T01:02:57.728Z,2.35
2023-03-11T01:04:59.400Z,1.48
2023-03-11T01:07:01.077Z,1.88
2023-03-11T01:09:03.040Z,2.83
2023-03-11T01:11:06.506Z,1.27
2023-03-11T01:13:08.081Z,1.75
2023-03-11T01:15:15.435Z,1.40
2023-03-11T01:17:17.077Z,1.50
2023-03-11T01:19:18.793Z,1.88
2023-03-11T01:21:20.432Z,2.15
2023-03-11T01:23:24.699Z,1.83
2023-03-11T01:25:26.590Z,2.00
2023-03-11T01:27:28.768Z,1.45
2023-03-11T01:29:30.420Z,1.98
2023-03-11T01:31:32.042Z,1.77
2023-03-11T01:33:33.689Z,2.00
2023-03-11T01:35:35.632Z,2.20
2023-03-11T01:37:37.455Z,1.88
2023-03-11T01:39:39.112Z,2.70
2023-03-11T01:41:40.775Z,2.08
2023-03-11T01:43:45.227Z,1.60
2023-03-11T01:45:49.959Z,1.38
2023-03-11T01:47:51.566Z,1.50
2023-03-11T01:49:53.324Z,1.88
2023-03-11T01:51:58.126Z,1.40
2023-03-11T01:54:01.421Z,1.17
2023-03-11T01:56:04.388Z,1.10
2023-03-11T01:58:09.492Z,1.30
2023-03-11T02:00:12.764Z,1.60
2023-03-11T02:02:20.409Z,1.20
2023-03-11T02:04:22.158Z,1.30
2023-03-11T02:06:24.472Z,1.38
2023-03-11T02:08:26.130Z,1.75
2023-03-11T02:10:27.895Z,1.27
2023-03-11T02:12:31.518Z,1.52
2023-03-11T02:14:33.404Z,1.25
2023-03-11T02:16:35.336Z,0.95
2023-03-11T02:18:37.771Z,1.40
2023-03-11T02:21:08.739Z,2.00
2023-03-11T02:23:12.193Z,1.80
2023-03-11T02:25:51.357Z,2.08
2023-03-11T02:27:54.680Z,1.80
2023-03-11T02:29:56.917Z,1.83
2023-03-11T02:32:00.270Z,2.28
2023-03-11T02:34:03.022Z,1.58
2023-03-11T02:36:05.365Z,1.48
2023-03-11T02:38:07.042Z,1.95
2023-03-11T02:40:34.523Z,1.52
2023-03-11T02:42:36.152Z,1.30
2023-03-11T02:44:38.726Z,1.42
2023-03-11T02:46:41.834Z,1.40
2023-03-11T02:48:43.810Z,1.92
2023-03-11T02:50:46.824Z,1.67
2023-03-11T02:52:49.952Z,1.50
2023-03-11T02:54:51.700Z,1.85
2023-03-11T02:56:53.357Z,2.05
2023-03-11T02:58:55.017Z,1.55
2023-03-11T03:00:56.846Z,1.58
2023-03-11T03:02:58.478Z,1.50
2023-03-11T03:05:00.101Z,1.30
2023-03-11T03:07:01.807Z,1.33
2023-03-11T03:09:04.159Z,1.25
2023-03-11T03:11:05.848Z,1.30
2023-03-11T03:13:07.515Z,1.65
2023-03-11T03:15:10.482Z,1.38
2023-03-11T03:17:12.262Z,1.45
2023-03-11T03:19:13.961Z,1.55
2023-03-11T03:21:15.576Z,1.40
2023-03-11T03:23:17.455Z,1.40
2023-03-11T03:25:19.237Z,1.42
2023-03-11T03:27:20.856Z,2.95
2023-03-11T03:29:22.510Z,1.63
2023-03-11T03:31:24.258Z,1.90
2023-03-11T03:33:25.842Z,1.50
2023-03-11T03:35:27.467Z,1.40
2023-03-11T03:37:32.217Z,1.58
2023-03-11T03:39:34.075Z,1.60
2023-03-11T03:41:35.687Z,1.48
2023-03-11T03:43:37.367Z,1.77
2023-03-11T03:45:39.083Z,2.10
2023-03-11T03:47:40.929Z,1.77
2023-03-11T03:49:42.602Z,1.48
2023-03-11T03:51:44.221Z,1.33
2023-03-11T03:53:48.850Z,1.42
2023-03-11T03:55:51.019Z,1.73
2023-03-11T03:57:52.770Z,1.77
2023-03-11T03:59:54.439Z,2.20
2023-03-11T04:01:56.102Z,1.50
2023-03-11T04:03:57.795Z,1.35
2023-03-11T04:06:17.234Z,1.50
2023-03-11T04:08:18.958Z,1.75
2023-03-11T04:10:20.696Z,1.17
2023-03-11T04:12:22.354Z,2.40
2023-03-11T04:14:24.055Z,1.60
2023-03-11T04:16:25.696Z,2.05
2023-03-11T04:18:27.417Z,1.80
2023-03-11T04:20:29.183Z,1.20
2023-03-11T04:22:30.846Z,1.50
2023-03-11T04:24:32.576Z,1.65
2023-03-11T04:26:34.234Z,1.98
2023-03-11T04:28:35.995Z,1.85
2023-03-11T04:30:38.063Z,1.30
2023-03-11T04:32:39.761Z,1.83
2023-03-11T04:34:42.128Z,2.40
2023-03-11T04:36:43.799Z,1.48
2023-03-11T04:38:46.760Z,1.90
2023-03-11T04:40:48.554Z,1.17
2023-03-11T04:42:50.228Z,2.00
2023-03-11T04:44:51.911Z,1.45
2023-03-11T04:46:53.891Z,1.70
2023-03-11T04:48:55.736Z,1.50
2023-03-11T04:50:57.378Z,1.80
2023-03-11T04:52:59.020Z,2.20
2023-03-11T04:55:00.719Z,2.22
2023-03-11T04:57:02.365Z,1.23
2023-03-11T04:59:04.053Z,1.90
2023-03-11T05:01:05.771Z,1.57
2023-03-11T05:03:07.511Z,1.77
2023-03-11T05:05:10.128Z,1.47
2023-03-11T05:07:11.781Z,2.00
2023-03-11T05:09:13.489Z,2.03
2023-03-11T05:11:15.198Z,1.57
2023-03-11T05:13:16.842Z,2.10
2023-03-11T05:15:18.972Z,2.07
2023-03-11T05:17:20.788Z,1.83
2023-03-11T05:19:31.290Z,1.70
2023-03-11T05:21:32.918Z,2.67
2023-03-11T05:23:34.596Z,1.80
2023-03-11T05:25:36.315Z,2.50
2023-03-11T05:27:37.955Z,1.80
2023-03-11T05:29:39.910Z,1.70
2023-03-11T05:31:41.528Z,1.73
2023-03-11T05:33:43.161Z,1.67
2023-03-11T05:35:44.874Z,1.52
2023-03-11T05:37:49.661Z,1.70
2023-03-11T05:39:52.524Z,1.88
2023-03-11T05:41:56.481Z,2.55
2023-03-11T05:43:58.179Z,1.98
2023-03-11T05:45:59.828Z,2.03
2023-03-11T05:48:01.447Z,1.65
2023-03-11T05:50:04.000Z,1.55
2023-03-11T05:52:05.774Z,2.10
2023-03-11T05:54:15.216Z,1.98
2023-03-11T05:56:19.306Z,1.80
2023-03-11T05:58:20.997Z,2.10
2023-03-11T06:00:23.001Z,2.47
2023-03-11T06:02:24.749Z,2.03
2023-03-11T06:04:26.555Z,2.10
2023-03-11T06:06:28.358Z,1.93
2023-03-11T06:08:30.902Z,2.20
2023-03-11T06:10:32.585Z,2.22
2023-03-11T06:12:35.376Z,2.03
2023-03-11T06:14:38.761Z,2.00
2023-03-11T06:16:41.603Z,1.80
2023-03-11T06:18:43.376Z,1.33
2023-03-11T06:20:45.025Z,2.17
2023-03-11T06:22:49.844Z,1.67
2023-03-11T06:24:51.606Z,1.70
2023-03-11T06:26:53.686Z,2.00
2023-03-11T06:28:55.404Z,1.60
2023-03-11T06:30:58.847Z,3.37
2023-03-11T06:33:01.163Z,2.28
2023-03-11T06:35:04.627Z,1.83
2023-03-11T06:37:06.262Z,3.13
2023-03-11T06:39:08.148Z,1.77
2023-03-11T06:41:10.469Z,1.70
2023-03-11T06:43:12.054Z,1.90
2023-03-11T06:45:13.824Z,1.60
2023-03-11T06:47:16.094Z,2.22
2023-03-11T06:49:17.844Z,2.83
2023-03-11T06:51:21.305Z,4.22
2023-03-11T06:53:23.558Z,4.20
2023-03-11T06:55:25.543Z,3.33
2023-03-11T06:57:27.787Z,3.10
2023-03-11T06:59:29.481Z,2.25
2023-03-11T07:01:31.210Z,2.60
2023-03-11T07:03:33.282Z,1.70
2023-03-11T07:05:34.953Z,1.95
2023-03-11T07:07:36.615Z,2.42
2023-03-11T07:09:38.367Z,2.10
2023-03-11T07:11:40.030Z,1.55
2023-03-11T07:13:41.737Z,2.05
2023-03-11T07:15:43.407Z,1.58
2023-03-11T07:17:45.046Z,1.65
2023-03-11T07:19:46.777Z,2.10
2023-03-11T07:21:48.748Z,1.70
2023-03-11T07:23:54.828Z,1.50
2023-03-11T07:25:56.585Z,1.88
2023-03-11T07:27:58.201Z,2.00
2023-03-11T07:30:02.087Z,1.95
2023-03-11T07:32:04.050Z,1.80
2023-03-11T07:34:11.390Z,1.70
2023-03-11T07:36:18.889Z,2.03
2023-03-11T07:38:21.045Z,2.60
2023-03-11T07:40:22.833Z,1.90
2023-03-11T07:42:24.436Z,2.35
2023-03-11T07:44:26.186Z,1.33
2023-03-11T07:46:29.511Z,1.98
2023-03-11T07:48:31.301Z,1.55
2023-03-11T07:50:33.047Z,2.15
2023-03-11T07:52:34.722Z,2.15
2023-03-11T07:54:36.420Z,1.52
2023-03-11T07:56:38.584Z,1.77
2023-03-11T07:58:40.770Z,2.20
2023-03-11T08:00:42.390Z,2.13
2023-03-11T08:02:44.123Z,1.65
2023-03-11T08:04:45.878Z,1.52
2023-03-11T08:06:48.053Z,2.95
2023-03-11T08:08:50.301Z,2.30
2023-03-11T08:10:51.971Z,1.65
2023-03-11T08:12:53.629Z,2.45
2023-03-11T08:14:55.444Z,1.55
2023-03-11T08:16:57.177Z,2.10
2023-03-11T08:18:59.203Z,1.13
2023-03-11T08:21:05.740Z,1.35
2023-03-11T08:23:07.575Z,1.20
2023-03-11T08:25:09.390Z,1.65
2023-03-11T08:27:12.383Z,2.17
2023-03-11T08:29:14.084Z,1.63
2023-03-11T08:31:17.660Z,1.50
2023-03-11T08:33:19.292Z,1.33
2023-03-11T08:35:21.073Z,1.65
2023-03-11T08:37:24.366Z,1.60
2023-03-11T08:39:26.134Z,1.33
2023-03-11T08:41:28.197Z,1.60
2023-03-11T08:43:29.790Z,1.73
2023-03-11T08:45:31.627Z,1.30
2023-03-11T08:47:37.939Z,1.55
2023-03-11T08:49:39.972Z,1.77
2023-03-11T08:51:42.612Z,1.30
2023-03-11T08:53:44.369Z,1.65
2023-03-11T08:55:46.037Z,1.40
2023-03-11T08:57:47.669Z,1.42
2023-03-11T09:00:46.023Z,1.75
2023-03-11T09:02:48.047Z,1.90
2023-03-11T09:04:49.944Z,1.45
2023-03-11T09:06:51.574Z,1.80
2023-03-11T09:08:53.292Z,1.63
2023-03-11T09:10:55.011Z,1.00
2023-03-11T09:12:56.604Z,1.48
2023-03-11T09:14:58.381Z,1.10
2023-03-11T09:16:59.957Z,1.25
2023-03-11T09:19:04.007Z,1.17
2023-03-11T09:21:05.802Z,1.55
2023-03-11T09:23:08.677Z,1.10
2023-03-11T09:25:12.283Z,1.20
2023-03-11T09:27:15.454Z,1.17
2023-03-11T09:29:17.101Z,1.55
2023-03-11T09:31:19.244Z,1.67
2023-03-11T09:33:20.960Z,1.17
2023-03-11T09:35:22.661Z,1.17
2023-03-11T09:37:24.400Z,1.20
2023-03-11T09:39:26.057Z,1.30
2023-03-11T09:41:32.763Z,1.60
2023-03-11T09:43:55.525Z,1.38
2023-03-11T09:46:19.090Z,0.95
2023-03-11T09:48:34.978Z,1.00
2023-03-11T09:50:58.308Z,1.30
2023-03-11T09:53:06.759Z,1.10
2023-03-11T09:55:21.253Z,1.17
2023-03-11T09:57:25.722Z,1.23
2023-03-11T09:59:30.914Z,1.58
2023-03-11T10:01:34.698Z,1.45
2023-03-11T10:03:38.685Z,1.35
2023-03-11T10:05:42.768Z,1.20
2023-03-11T10:07:49.920Z,1.90
2023-03-11T10:09:53.725Z,1.55
2023-03-11T10:12:16.771Z,1.20
2023-03-11T10:14:24.366Z,1.40
2023-03-11T10:16:33.949Z,1.35
2023-03-11T10:19:00.538Z,1.50
2023-03-11T10:21:39.320Z,1.20
2023-03-11T10:23:56.170Z,1.65
2023-03-11T10:26:10.311Z,1.25
2023-03-11T10:28:18.925Z,1.48
2023-03-11T10:30:26.396Z,1.10
2023-03-11T10:32:42.478Z,1.05
2023-03-11T10:34:49.494Z,1.05
2023-03-11T10:37:17.490Z,1.25
2023-03-11T10:39:19.779Z,1.02
2023-03-11T10:41:31.013Z,1.10
2023-03-11T10:43:37.679Z,1.92
2023-03-11T10:45:43.453Z,1.90
2023-03-11T10:47:45.065Z,1.75
2023-03-11T10:49:46.802Z,1.33
2023-03-11T10:51:51.698Z,1.70
2023-03-11T10:53:58.594Z,1.40
2023-03-11T10:56:03.201Z,1.27
2023-03-11T10:58:13.249Z,1.65
2023-03-11T11:00:29.565Z,1.33
2023-03-11T11:02:51.973Z,0.95
2023-03-11T11:05:08.577Z,1.05
2023-03-11T11:07:31.711Z,1.30
2023-03-11T11:09:33.375Z,1.00
2023-03-11T11:11:39.633Z,1.20
2023-03-11T11:13:56.084Z,1.02
2023-03-11T11:16:20.490Z,1.02
2023-03-11T11:18:42.388Z,1.00
2023-03-11T11:21:09.467Z,1.30
2023-03-11T11:23:25.680Z,1.30
2023-03-11T11:25:34.699Z,1.00
2023-03-11T11:27:36.391Z,1.70
2023-03-11T11:29:38.179Z,1.25
2023-03-11T11:31:42.291Z,1.27
2023-03-11T11:33:51.020Z,1.60
2023-03-11T11:35:58.336Z,1.30
2023-03-11T11:38:01.851Z,1.38
2023-03-11T11:40:15.916Z,1.40
2023-03-11T11:42:19.514Z,1.30
2023-03-11T11:44:22.903Z,1.00
2023-03-11T11:46:43.590Z,1.05
2023-03-11T11:48:52.418Z,1.33
2023-03-11T11:51:11.291Z,1.10
2023-03-11T11:53:22.023Z,1.08
2023-03-11T11:55:25.907Z,1.05
2023-03-11T11:57:27.634Z,1.23
2023-03-11T11:59:30.918Z,1.27
2023-03-11T12:01:40.318Z,1.15
2023-03-11T12:03:43.714Z,1.20
2023-03-11T12:05:58.011Z,1.15
2023-03-11T12:08:51.192Z,1.52
2023-03-11T12:10:57.309Z,1.25
2023-03-11T12:13:36.474Z,1.00
2023-03-11T12:15:44.235Z,1.27
2023-03-11T12:17:47.883Z,1.00
2023-03-11T12:19:56.472Z,0.90
2023-03-11T12:22:19.511Z,1.15
2023-03-11T12:24:40.551Z,1.10
2023-03-11T12:26:43.839Z,1.40
2023-03-11T12:28:59.011Z,0.98
2023-03-11T12:31:03.997Z,1.00
2023-03-11T12:33:29.639Z,1.05
2023-03-11T12:35:33.633Z,1.20
2023-03-11T12:37:35.341Z,1.55
2023-03-11T12:39:37.058Z,0.93
2023-03-11T12:41:42.096Z,1.33
2023-03-11T12:43:43.790Z,1.27
2023-03-11T12:45:53.719Z,1.20
2023-03-11T12:48:29.529Z,1.83
2023-03-11T12:50:41.868Z,1.25
2023-03-11T12:52:54.390Z,1.20
2023-03-11T12:54:58.968Z,1.80
2023-03-11T12:57:03.947Z,1.27
2023-03-11T12:59:39.984Z,1.27
2023-03-11T13:01:47.913Z,1.38
2023-03-11T13:04:14.240Z,1.50
2023-03-11T13:06:24.550Z,1.20
2023-03-11T13:08:28.361Z,1.52
2023-03-11T13:10:39.152Z,1.10
2023-03-11T13:12:42.038Z,1.20
2023-03-11T13:14:43.754Z,1.80
2023-03-11T13:16:46.213Z,1.05
2023-03-11T13:18:49.816Z,1.45
2023-03-11T13:21:32.711Z,1.30
2023-03-11T13:23:37.745Z,1.27
2023-03-11T13:26:05.984Z,1.30
2023-03-11T13:28:35.499Z,1.02
2023-03-11T13:30:41.354Z,1.10
2023-03-11T13:33:18.437Z,1.20
2023-03-11T13:35:41.783Z,1.50
2023-03-11T13:38:34.830Z,1.00
2023-03-11T13:40:41.225Z,1.08
2023-03-11T13:42:54.915Z,1.48
2023-03-11T13:44:58.046Z,0.90
2023-03-11T13:47:16.107Z,1.20
2023-03-11T13:49:37.743Z,2.20
2023-03-11T13:51:44.902Z,1.10
2023-03-11T13:54:06.430Z,1.15
2023-03-11T13:56:17.750Z,1.67
2023-03-11T13:58:24.945Z,1.00
2023-03-11T14:00:29.205Z,1.20
2023-03-11T14:02:31.007Z,1.77
2023-03-11T14:04:36.446Z,1.17
2023-03-11T14:06:38.700Z,1.75
2023-03-11T14:08:40.579Z,1.20
2023-03-11T14:10:55.018Z,1.42
2023-03-11T14:13:17.364Z,0.77
2023-03-11T14:15:24.171Z,1.13
2023-03-11T14:17:25.812Z,1.15
2023-03-11T14:19:28.821Z,1.10
2023-03-11T14:21:31.975Z,1.60
2023-03-11T14:23:39.735Z,1.35
2023-03-11T14:25:41.379Z,1.38
2023-03-11T14:27:56.269Z,1.38
2023-03-11T14:29:58.004Z,1.45
2023-03-11T14:31:59.989Z,1.25
2023-03-11T14:34:04.703Z,1.10
2023-03-11T14:36:11.630Z,1.10
2023-03-11T14:38:24.687Z,1.00
2023-03-11T14:40:42.078Z,1.20
2023-03-11T14:42:45.097Z,1.42
2023-03-11T14:44:58.656Z,1.00
2023-03-11T14:47:29.889Z,1.10
2023-03-11T14:49:31.688Z,1.55
2023-03-11T14:51:35.472Z,3.33
2023-03-11T14:53:50.100Z,1.75
2023-03-11T14:56:11.655Z,2.35
2023-03-11T14:58:29.309Z,2.20
2023-03-11T15:00:35.544Z,1.33
2023-03-11T15:02:44.986Z,1.63
2023-03-11T15:04:47.002Z,1.42
2023-03-11T15:06:48.668Z,1.15
2023-03-11T15:08:55.179Z,1.48
2023-03-11T15:11:25.466Z,2.05
2023-03-11T15:13:27.003Z,1.40
2023-03-11T15:15:29.637Z,1.17
2023-03-11T15:17:39.870Z,1.05
2023-03-11T15:19:44.430Z,1.25
2023-03-11T15:21:47.456Z,1.30
2023-03-11T15:23:55.692Z,1.20
2023-03-11T15:25:57.376Z,1.20
2023-03-11T15:27:59.316Z,1.58
2023-03-11T15:30:02.373Z,1.30
2023-03-11T15:32:25.746Z,1.58
2023-03-11T15:34:29.203Z,1.05
2023-03-11T15:36:33.708Z,0.90
2023-03-11T15:38:35.328Z,1.40
2023-03-11T15:40:45.340Z,1.05
2023-03-11T15:42:48.900Z,1.15
2023-03-11T15:44:53.658Z,1.58
2023-03-11T15:46:55.794Z,1.33
2023-03-11T15:48:57.384Z,1.45
2023-03-11T15:51:00.562Z,1.23
2023-03-11T15:53:03.339Z,1.42
2023-03-11T15:55:05.652Z,1.27
2023-03-11T15:57:11.773Z,1.23
2023-03-11T15:59:17.350Z,1.50
2023-03-11T16:01:23.025Z,1.42
2023-03-11T16:03:24.944Z,1.42
2023-03-11T16:05:26.654Z,0.90
2023-03-11T16:07:39.165Z,1.10
2023-03-11T16:09:41.444Z,1.40
2023-03-11T16:11:44.000Z,1.10
2023-03-11T16:13:45.830Z,0.80
2023-03-11T16:15:47.505Z,1.10
2023-03-11T16:17:51.089Z,1.42
2023-03-11T16:19:52.697Z,1.20
2023-03-11T16:21:54.365Z,1.02
2023-03-11T16:23:56.004Z,1.02
2023-03-11T16:26:00.141Z,1.42
2023-03-11T16:28:02.083Z,1.58
2023-03-11T16:30:04.076Z,1.00
2023-03-11T16:32:06.013Z,1.30
2023-03-11T16:34:07.623Z,1.10
2023-03-11T16:36:11.273Z,1.23
2023-03-11T16:38:12.932Z,0.90
2023-03-11T16:40:18.337Z,1.15
2023-03-11T16:42:24.026Z,1.30
2023-03-11T16:44:25.869Z,1.10
2023-03-11T16:46:27.939Z,1.33
2023-03-11T16:48:29.677Z,1.27
2023-03-11T16:50:31.998Z,1.60
2023-03-11T16:52:33.840Z,1.50
2023-03-11T16:54:35.518Z,1.50
2023-03-11T16:56:41.692Z,1.25
2023-03-11T16:58:43.488Z,1.42
2023-03-11T17:00:45.634Z,1.70
2023-03-11T17:02:47.303Z,1.98
2023-03-11T17:04:48.955Z,1.50
2023-03-11T17:06:50.663Z,1.23
2023-03-11T17:08:52.358Z,1.35
2023-03-11T17:10:54.055Z,2.05
2023-03-11T17:12:55.692Z,1.15
2023-03-11T17:14:57.414Z,1.45
2023-03-11T17:16:59.437Z,1.85
2023-03-11T17:19:01.809Z,1.75
2023-03-11T17:21:11.529Z,1.88
2023-03-11T17:23:13.193Z,2.20
2023-03-11T17:25:14.913Z,2.28
2023-03-11T17:27:16.517Z,1.58
2023-03-11T17:29:19.160Z,1.40
2023-03-11T17:31:20.840Z,3.92
2023-03-11T17:33:22.464Z,1.58
2023-03-11T17:35:24.434Z,1.70
2023-03-11T17:37:26.164Z,1.95
2023-03-11T17:39:27.797Z,2.05
2023-03-11T17:41:29.505Z,5.68
2023-03-11T17:43:33.685Z,3.97
2023-03-11T17:45:35.452Z,5.15
2023-03-11T17:47:37.283Z,7.28
2023-03-11T17:49:39.144Z,8.48
2023-03-11T17:51:41.002Z,8.02
2023-03-11T17:53:45.860Z,7.90
2023-03-11T17:55:47.964Z,5.25
2023-03-11T17:57:49.686Z,5.38
2023-03-11T17:59:52.765Z,3.35
2023-03-11T18:01:54.576Z,3.53
2023-03-11T18:03:56.528Z,2.85
2023-03-11T18:06:02.285Z,2.00
2023-03-11T18:08:03.997Z,2.85
2023-03-11T18:10:06.612Z,3.17
2023-03-11T18:12:08.371Z,2.75
2023-03-11T18:14:10.199Z,2.30
2023-03-11T18:16:17.302Z,2.67
2023-03-11T18:18:18.989Z,2.65
2023-03-11T18:20:20.787Z,1.73
2023-03-11T18:22:22.475Z,1.60
2023-03-11T18:24:24.154Z,1.63
2023-03-11T18:26:27.162Z,2.03
2023-03-11T18:28:30.384Z,2.53
2023-03-11T18:30:38.231Z,4.20
2023-03-11T18:32:42.723Z,4.97
2023-03-11T18:34:44.560Z,4.85
2023-03-11T18:36:49.132Z,3.38
2023-03-11T18:38:53.403Z,2.85
2023-03-11T18:40:58.108Z,3.05
2023-03-11T18:42:59.910Z,2.58
2023-03-11T18:45:01.681Z,3.08
2023-03-11T18:47:03.368Z,2.65
2023-03-11T18:49:05.577Z,3.25
2023-03-11T18:51:08.731Z,3.22
2023-03-11T18:53:10.541Z,2.95
2023-03-11T18:55:12.319Z,2.97
2023-03-11T18:57:14.148Z,3.42
2023-03-11T18:59:15.989Z,4.35
2023-03-11T19:01:19.888Z,4.57
2023-03-11T19:03:24.694Z,5.93
2023-03-11T19:05:26.334Z,6.68
2023-03-11T19:07:31.456Z,11.65
2023-03-11T19:09:33.161Z,10.10
2023-03-11T19:11:34.969Z,10.02
2023-03-11T19:13:46.618Z,8.65
2023-03-11T19:15:48.962Z,9.55
2023-03-11T19:18:04.252Z,8.90
2023-03-11T19:20:09.502Z,6.00
2023-03-11T19:22:11.220Z,5.95
2023-03-11T19:24:13.707Z,5.72
2023-03-11T19:26:15.492Z,5.07
2023-03-11T19:28:17.641Z,5.07
2023-03-11T19:30:20.779Z,5.32
2023-03-11T19:32:25.200Z,5.95
2023-03-11T19:34:28.978Z,7.78
2023-03-11T19:36:30.713Z,6.60
2023-03-11T19:38:32.868Z,8.10
2023-03-11T19:40:34.556Z,10.80
2023-03-11T19:42:36.248Z,12.25
2023-03-11T19:44:37.982Z,13.07
2023-03-11T19:46:39.985Z,15.45
2023-03-11T19:48:42.057Z,15.45
2023-03-11T19:50:51.216Z,15.05
2023-03-11T19:52:53.013Z,12.88
2023-03-11T19:54:54.673Z,11.88
2023-03-11T19:56:56.420Z,9.98
2023-03-11T19:58:58.222Z,10.18
2023-03-11T20:01:00.565Z,7.78
2023-03-11T20:03:02.901Z,7.43
2023-03-11T20:05:05.065Z,7.72
2023-03-11T20:07:06.981Z,7.25
2023-03-11T20:09:09.057Z,7.13
2023-03-11T20:11:11.477Z,8.18
2023-03-11T20:13:14.784Z,9.68
2023-03-11T20:15:16.750Z,9.88
2023-03-11T20:17:18.516Z,9.88
2023-03-11T20:19:21.425Z,11.45
2023-03-11T20:21:25.871Z,10.27
2023-03-11T20:23:27.607Z,7.03
2023-03-11T20:25:33.152Z,6.03
2023-03-11T20:27:34.799Z,5.97
2023-03-11T20:29:37.329Z,4.85
2023-03-11T20:31:41.975Z,5.03
2023-03-11T20:33:44.032Z,6.43
2023-03-11T20:35:45.757Z,7.45
2023-03-11T20:37:47.639Z,8.68
2023-03-11T20:39:52.704Z,7.88
2023-03-11T20:41:54.455Z,8.38
2023-03-11T20:43:58.854Z,8.50
2023-03-11T20:46:01.142Z,9.27
2023-03-11T20:48:02.947Z,7.57
2023-03-11T20:50:05.142Z,7.45
2023-03-11T20:52:06.917Z,6.70
2023-03-11T20:54:08.610Z,6.50
2023-03-11T20:56:13.451Z,6.80
2023-03-11T20:58:18.953Z,6.80
2023-03-11T21:00:21.080Z,8.10
2023-03-11T21:02:23.843Z,8.35
2023-03-11T21:04:25.765Z,9.15
2023-03-11T21:06:32.314Z,8.80
2023-03-11T21:08:33.985Z,9.32
2023-03-11T21:10:36.176Z,8.93
2023-03-11T21:12:38.154Z,8.82
2023-03-11T21:14:40.810Z,9.85
2023-03-11T21:16:46.520Z,9.65
2023-03-11T21:18:49.530Z,10.25
2023-03-11T21:20:51.356Z,8.38
2023-03-11T21:22:53.513Z,9.10
2023-03-11T21:24:55.714Z,9.55
2023-03-11T21:26:57.525Z,9.25
2023-03-11T21:28:59.199Z,8.90
2023-03-11T21:31:06.583Z,8.43
2023-03-11T21:33:08.532Z,9.45
2023-03-11T21:35:10.529Z,10.63
2023-03-11T21:37:12.200Z,8.93
2023-03-11T21:39:15.239Z,10.05
2023-03-11T21:41:27.040Z,10.07
2023-03-11T21:43:28.802Z,10.32
2023-03-11T21:45:30.559Z,12.70
2023-03-11T21:47:32.523Z,15.30
2023-03-11T21:49:34.600Z,19.23
2023-03-11T21:51:36.481Z,21.02
2023-03-11T21:53:38.203Z,23.67
2023-03-11T21:55:43.219Z,22.60
2023-03-11T21:57:44.847Z,21.65
2023-03-11T21:59:46.474Z,20.45
2023-03-11T22:01:48.314Z,16.00
2023-03-11T22:03:50.144Z,16.75
2023-03-11T22:06:06.703Z,15.43
2023-03-11T22:08:08.801Z,11.98
2023-03-11T22:10:11.117Z,13.25
2023-03-11T22:12:12.707Z,13.35
2023-03-11T22:14:14.354Z,13.77
2023-03-11T22:16:16.206Z,14.75
2023-03-11T22:18:18.046Z,13.75
2023-03-11T22:20:19.858Z,11.55
2023-03-11T22:22:21.570Z,11.00
2023-03-11T22:24:23.204Z,9.43
2023-03-11T22:26:24.891Z,7.50
2023-03-11T22:28:26.554Z,6.40
2023-03-11T22:30:28.240Z,7.22
2023-03-11T22:32:29.860Z,7.20
2023-03-11T22:34:32.944Z,9.25
2023-03-11T22:36:34.646Z,9.00
2023-03-11T22:38:37.212Z,10.30
2023-03-11T22:40:39.803Z,12.50
2023-03-11T22:42:41.501Z,13.70
2023-03-11T22:44:43.132Z,14.23
2023-03-11T22:46:45.168Z,12.80
2023-03-11T22:48:46.953Z,11.03
2023-03-11T22:50:48.708Z,10.47
2023-03-11T22:52:50.462Z,9.43
2023-03-11T22:54:52.312Z,10.03
2023-03-11T22:56:54.009Z,9.20
2023-03-11T22:58:55.774Z,7.93
2023-03-11T23:00:57.351Z,6.57
2023-03-11T23:02:59.082Z,5.43
2023-03-11T23:05:00.723Z,5.27
2023-03-11T23:07:02.382Z,5.53
2023-03-11T23:09:05.154Z,4.70
2023-03-11T23:11:10.925Z,6.53
2023-03-11T23:13:13.190Z,5.47
2023-03-11T23:15:17.879Z,5.37
2023-03-11T23:17:19.495Z,5.47
2023-03-11T23:19:21.158Z,6.80
2023-03-11T23:21:29.032Z,7.80
2023-03-11T23:23:30.803Z,9.23
2023-03-11T23:25:33.605Z,9.98
2023-03-11T23:27:35.265Z,10.97
2023-03-11T23:29:36.824Z,11.47
2023-03-11T23:31:38.425Z,11.83
2023-03-11T23:33:40.054Z,11.75
2023-03-11T23:35:42.252Z,12.37
2023-03-11T23:37:47.760Z,12.40
2023-03-11T23:39:49.405Z,11.95
2023-03-11T23:41:51.006Z,12.07
2023-03-11T23:43:52.652Z,11.97
2023-03-11T23:45:54.494Z,10.83
2023-03-11T23:47:56.134Z,11.43
2023-03-11T23:49:57.882Z,11.40
2023-03-11T23:51:59.466Z,10.13
2023-03-11T23:54:01.138Z,10.13
2023-03-11T23:56:03.003Z,10.77
2023-03-11T23:58:04.806Z,10.70
